PWSweather.com
Personal Weather Stations
Station Observations
KCOGRAND2
Redlands, Southcamp Road & Dakota Circle, Grand Junction, CO 81507

Redlands, Southcamp Road & Dakota CircleGrand Junction, CO 81507

Lat: 39.055, Lon: -108.637

Elevation: 4870

Station Type: RadioShack WX200

Latest ConditionsUpdated 8:34:00 PM MDT Monday, Jul 28, 2014
Currently Today's Max Today's Min Today's Average
Temperature 75.9°F24.4°C 85.6°F29.8°C 69.8°F21.0°C 78.4°F25.8°C
Dew Point 47.8°F8.8°C 53.8°F12.1°C 34.7°F1.5°C 43.4°F6.3°C
Winds 4.0 mph SSE6.4 kmh SSE 12.0 mph E19.3 kmh E - 3.8 mph 6.1 kmh
Wind Gusts 6.9 mph11.1 kmh 19.0 mph30.6 kmh - -
Humidity 37% 53% 18% 30%
Pressure 25.25 in855.1 mb 25.31 in857.1 mb 25.19 in853.0 mb -
Hour Temp Dew Point Humidity Winds Wind Gusts Pressure Precip Precip Rate Daily Precip Total
08:34 PM 75.9°F24.4°C 47.8°F8.8°C 37% 4.0 mph SSE6.4 kmh SSE 6.9 mph11.1 kmh 25.25 in855.1 mb 0.00 in0.0 mm 0.00 in/hr0.0 mm/hr 0.00 in0.0 mm
08:29 PM 76.6°F24.8°C 47.7°F8.7°C 36% 4.0 mph SSW6.4 kmh SSW 7.8 mph12.6 kmh 25.25 in855.1 mb 0.00 in0.0 mm 0.00 in/hr0.0 mm/hr 0.00 in0.0 mm
08:24 PM 77.5°F25.3°C 45.3°F7.4°C 32% 4.0 mph WSW6.4 kmh WSW 6.3 mph10.1 kmh 25.22 in854.0 mb 0.00 in0.0 mm 0.00 in/hr0.0 mm/hr 0.00 in0.0 mm
08:19 PM 77.9°F25.5°C 45.7°F7.6°C 32% 3.0 mph W4.8 kmh W 9.2 mph14.8 kmh 25.22 in854.0 mb 0.00 in0.0 mm 0.00 in/hr0.0 mm/hr 0.00 in0.0 mm
08:14 PM 77.9°F25.5°C 45.7°F7.6°C 32% 2.0 mph N3.2 kmh N 8.7 mph14.0 kmh 25.22 in854.0 mb 0.00 in0.0 mm 0.00 in/hr0.0 mm/hr 0.00 in0.0 mm
08:09 PM 78.3°F25.7°C 46.0°F7.8°C 32% 2.0 mph N3.2 kmh N 6.9 mph11.1 kmh 25.22 in854.0 mb 0.00 in0.0 mm 0.00 in/hr0.0 mm/hr 0.00 in0.0 mm
08:04 PM 78.4°F25.8°C 45.3°F7.4°C 31% 5.0 mph NW8.0 kmh NW 9.6 mph15.4 kmh 25.22 in854.0 mb 0.00 in0.0 mm 0.00 in/hr0.0 mm/hr 0.00 in0.0 mm
07:59 PM 78.6°F25.9°C 45.5°F7.5°C 31% 8.0 mph W12.9 kmh W 15.2 mph24.5 kmh 25.22 in854.0 mb 0.00 in0.0 mm 0.00 in/hr0.0 mm/hr 0.00 in0.0 mm
07:54 PM 79.0°F26.1°C 45.0°F7.2°C 30% 8.0 mph W12.9 kmh W 15.4 mph24.8 kmh 25.22 in854.0 mb 0.00 in0.0 mm 0.00 in/hr0.0 mm/hr 0.00 in0.0 mm
07:49 PM 79.5°F26.4°C 45.3°F7.4°C 30% 8.0 mph WSW12.9 kmh WSW 13.0 mph20.9 kmh 25.22 in854.0 mb 0.00 in0.0 mm 0.00 in/hr0.0 mm/hr 0.00 in0.0 mm
07:44 PM 79.5°F26.4°C 45.3°F7.4°C 30% 8.0 mph SW12.9 kmh SW 13.4 mph21.6 kmh 25.22 in854.0 mb 0.00 in0.0 mm 0.00 in/hr0.0 mm/hr 0.00 in0.0 mm
07:39 PM 79.7°F26.5°C 45.5°F7.5°C 30% 8.0 mph SW12.9 kmh SW 12.5 mph20.1 kmh 25.19 in853.0 mb 0.00 in0.0 mm 0.00 in/hr0.0 mm/hr 0.00 in0.0 mm
07:34 PM 80.4°F26.9°C 41.4°F5.2°C 25% 5.0 mph SSW8.0 kmh SSW 14.3 mph23.0 kmh 25.19 in853.0 mb 0.00 in0.0 mm 0.00 in/hr0.0 mm/hr 0.00 in0.0 mm
07:28 PM 81.0°F27.2°C 46.6°F8.1°C 30% 3.0 mph S4.8 kmh S 4.9 mph7.9 kmh 25.19 in853.0 mb 0.00 in0.0 mm 0.00 in/hr0.0 mm/hr 0.00 in0.0 mm
07:23 PM 81.1°F27.3°C 45.9°F7.7°C 29% 3.0 mph SSE4.8 kmh SSE 4.5 mph7.2 kmh 25.19 in853.0 mb 0.00 in0.0 mm 0.00 in/hr0.0 mm/hr 0.00 in0.0 mm
07:18 PM 81.3°F27.4°C 46.0°F7.8°C 29% 2.0 mph SE3.2 kmh SE 4.0 mph6.4 kmh 25.19 in853.0 mb 0.00 in0.0 mm 0.00 in/hr0.0 mm/hr 0.00 in0.0 mm
07:13 PM 81.3°F27.4°C 44.1°F6.7°C 27% 1.0 mph ESE1.6 kmh ESE 5.4 mph8.7 kmh 25.19 in853.0 mb 0.00 in0.0 mm 0.00 in/hr0.0 mm/hr 0.00 in0.0 mm
07:08 PM 81.7°F27.6°C 43.5°F6.4°C 26% 1.0 mph E1.6 kmh E 4.0 mph6.4 kmh 25.19 in853.0 mb 0.00 in0.0 mm 0.00 in/hr0.0 mm/hr 0.00 in0.0 mm
07:03 PM 81.9°F27.7°C 42.6°F5.9°C 25% 2.0 mph ESE3.2 kmh ESE 3.6 mph5.8 kmh 25.19 in853.0 mb 0.00 in0.0 mm 0.00 in/hr0.0 mm/hr 0.00 in0.0 mm
06:58 PM 81.9°F27.7°C 41.5°F5.3°C 24% 3.0 mph ESE4.8 kmh ESE 6.3 mph10.1 kmh 25.19 in853.0 mb 0.00 in0.0 mm 0.00 in/hr0.0 mm/hr 0.00 in0.0 mm
06:53 PM 81.9°F27.7°C 41.5°F5.3°C 24% 4.0 mph ESE6.4 kmh ESE 6.9 mph11.1 kmh 25.19 in853.0 mb 0.00 in0.0 mm 0.00 in/hr0.0 mm/hr 0.00 in0.0 mm
06:48 PM 81.9°F27.7°C 40.5°F4.7°C 23% 4.0 mph ESE6.4 kmh ESE 7.4 mph11.9 kmh 25.19 in853.0 mb 0.00 in0.0 mm 0.00 in/hr0.0 mm/hr 0.00 in0.0 mm
06:43 PM 82.0°F27.8°C 43.7°F6.5°C 26% 4.0 mph ESE6.4 kmh ESE 7.8 mph12.6 kmh 25.19 in853.0 mb 0.00 in0.0 mm 0.00 in/hr0.0 mm/hr 0.00 in0.0 mm
06:38 PM 81.9°F27.7°C 40.5°F4.7°C 23% 5.0 mph ESE8.0 kmh ESE 8.7 mph14.0 kmh 25.19 in853.0 mb 0.00 in0.0 mm 0.00 in/hr0.0 mm/hr 0.00 in0.0 mm
06:33 PM 81.7°F27.6°C 40.3°F4.6°C 23% 5.0 mph ESE8.0 kmh ESE 9.6 mph15.4 kmh 25.19 in853.0 mb 0.00 in0.0 mm 0.00 in/hr0.0 mm/hr 0.00 in0.0 mm
06:28 PM 81.5°F27.5°C 40.1°F4.5°C 23% 5.0 mph ESE8.0 kmh ESE 7.4 mph11.9 kmh 25.19 in853.0 mb 0.00 in0.0 mm 0.00 in/hr0.0 mm/hr 0.00 in0.0 mm
06:23 PM 81.5°F27.5°C 42.3°F5.7°C 25% 5.0 mph ESE8.0 kmh ESE 7.8 mph12.6 kmh 25.19 in853.0 mb 0.00 in0.0 mm 0.00 in/hr0.0 mm/hr 0.00 in0.0 mm
06:18 PM 81.3°F27.4°C 41.0°F5.0°C 24% 5.0 mph ESE8.0 kmh ESE 8.7 mph14.0 kmh 25.19 in853.0 mb 0.00 in0.0 mm 0.00 in/hr0.0 mm/hr 0.00 in0.0 mm
06:13 PM 81.3°F27.4°C 42.1°F5.6°C 25% 5.0 mph ESE8.0 kmh ESE 8.3 mph13.4 kmh 25.19 in853.0 mb 0.00 in0.0 mm 0.00 in/hr0.0 mm/hr 0.00 in0.0 mm
06:08 PM 81.1°F27.3°C 43.0°F6.1°C 26% 6.0 mph ESE9.7 kmh ESE 8.7 mph14.0 kmh 25.19 in853.0 mb 0.00 in0.0 mm 0.00 in/hr0.0 mm/hr 0.00 in0.0 mm
06:03 PM 80.8°F27.1°C 42.6°F5.9°C 26% 7.0 mph SE11.3 kmh SE 11.2 mph18.0 kmh 25.19 in853.0 mb 0.00 in0.0 mm 0.00 in/hr0.0 mm/hr 0.00 in0.0 mm
05:58 PM 80.2°F26.8°C 44.1°F6.7°C 28% 8.0 mph ESE12.9 kmh ESE 12.5 mph20.1 kmh 25.19 in853.0 mb 0.00 in0.0 mm 0.00 in/hr0.0 mm/hr 0.00 in0.0 mm
05:53 PM 80.1°F26.7°C 45.0°F7.2°C 29% 9.0 mph ESE14.5 kmh ESE 14.8 mph23.8 kmh 25.19 in853.0 mb 0.00 in0.0 mm 0.00 in/hr0.0 mm/hr 0.00 in0.0 mm
05:48 PM 80.4°F26.9°C 43.3°F6.3°C 27% 9.0 mph ESE14.5 kmh ESE 17.2 mph27.7 kmh 25.19 in853.0 mb 0.00 in0.0 mm 0.00 in/hr0.0 mm/hr 0.00 in0.0 mm
05:43 PM 81.0°F27.2°C 42.8°F6.0°C 26% 9.0 mph E14.5 kmh E 14.8 mph23.8 kmh 25.19 in853.0 mb 0.00 in0.0 mm 0.00 in/hr0.0 mm/hr 0.00 in0.0 mm
05:38 PM 80.8°F27.1°C 41.7°F5.4°C 25% 11.0 mph E17.7 kmh E 19.0 mph30.6 kmh 25.19 in853.0 mb 0.00 in0.0 mm 0.00 in/hr0.0 mm/hr 0.00 in0.0 mm
05:33 PM 80.8°F27.1°C 41.7°F5.4°C 25% 12.0 mph E19.3 kmh E 19.0 mph30.6 kmh 25.19 in853.0 mb 0.00 in0.0 mm 0.00 in/hr0.0 mm/hr 0.00 in0.0 mm
05:28 PM 81.1°F27.3°C 40.8°F4.9°C 24% 11.0 mph E17.7 kmh E 17.2 mph27.7 kmh 25.19 in853.0 mb 0.00 in0.0 mm 0.00 in/hr0.0 mm/hr 0.00 in0.0 mm
05:23 PM 82.0°F27.8°C 40.6°F4.8°C 23% 8.0 mph E12.9 kmh E 15.4 mph24.8 kmh 25.19 in853.0 mb 0.00 in0.0 mm 0.00 in/hr0.0 mm/hr 0.00 in0.0 mm
05:18 PM 83.3°F28.5°C 39.2°F4.0°C 21% 5.0 mph ESE8.0 kmh ESE 14.3 mph23.0 kmh 25.19 in853.0 mb 0.00 in0.0 mm 0.00 in/hr0.0 mm/hr 0.00 in0.0 mm
05:13 PM 84.2°F29.0°C 38.8°F3.8°C 20% 4.0 mph S6.4 kmh S 6.7 mph10.8 kmh 25.19 in853.0 mb 0.00 in0.0 mm 0.00 in/hr0.0 mm/hr 0.00 in0.0 mm
05:08 PM 84.2°F29.0°C 39.9°F4.4°C 21% 4.0 mph S6.4 kmh S 7.4 mph11.9 kmh 25.19 in853.0 mb 0.00 in0.0 mm 0.00 in/hr0.0 mm/hr 0.00 in0.0 mm
05:03 PM 84.2°F29.0°C 38.8°F3.8°C 20% 5.0 mph SW8.0 kmh SW 8.3 mph13.4 kmh 25.19 in853.0 mb 0.00 in0.0 mm 0.00 in/hr0.0 mm/hr 0.00 in0.0 mm
04:58 PM 84.2°F29.0°C 38.8°F3.8°C 20% 5.0 mph SW8.0 kmh SW 7.8 mph12.6 kmh 25.19 in853.0 mb 0.00 in0.0 mm 0.00 in/hr0.0 mm/hr 0.00 in0.0 mm
04:53 PM 84.4°F29.1°C 40.1°F4.5°C 21% 6.0 mph SSW9.7 kmh SSW 8.7 mph14.0 kmh 25.19 in853.0 mb 0.00 in0.0 mm 0.00 in/hr0.0 mm/hr 0.00 in0.0 mm
04:48 PM 84.2°F29.0°C 38.8°F3.8°C 20% 6.0 mph SSW9.7 kmh SSW 10.1 mph16.3 kmh 25.19 in853.0 mb 0.00 in0.0 mm 0.00 in/hr0.0 mm/hr 0.00 in0.0 mm
04:43 PM 84.4°F29.1°C 40.1°F4.5°C 21% 6.0 mph SSW9.7 kmh SSW 9.6 mph15.4 kmh 25.19 in853.0 mb 0.00 in0.0 mm 0.00 in/hr0.0 mm/hr 0.00 in0.0 mm
04:38 PM 84.2°F29.0°C 39.9°F4.4°C 21% 6.0 mph SW9.7 kmh SW 9.2 mph14.8 kmh 25.19 in853.0 mb 0.00 in0.0 mm 0.00 in/hr0.0 mm/hr 0.00 in0.0 mm
04:33 PM 84.0°F28.9°C 39.9°F4.4°C 21% 7.0 mph SW11.3 kmh SW 10.5 mph16.9 kmh 25.19 in853.0 mb 0.00 in0.0 mm 0.00 in/hr0.0 mm/hr 0.00 in0.0 mm
04:28 PM 84.0°F28.9°C 38.7°F3.7°C 20% 7.0 mph SW11.3 kmh SW 10.1 mph16.3 kmh 25.19 in853.0 mb 0.00 in0.0 mm 0.00 in/hr0.0 mm/hr 0.00 in0.0 mm
04:23 PM 84.2°F29.0°C 38.8°F3.8°C 20% 7.0 mph SW11.3 kmh SW 12.5 mph20.1 kmh 25.19 in853.0 mb 0.00 in0.0 mm 0.00 in/hr0.0 mm/hr 0.00 in0.0 mm
04:18 PM 84.2°F29.0°C 39.9°F4.4°C 21% 7.0 mph WSW11.3 kmh WSW 12.1 mph19.5 kmh 25.19 in853.0 mb 0.00 in0.0 mm 0.00 in/hr0.0 mm/hr 0.00 in0.0 mm
04:13 PM 84.0°F28.9°C 38.7°F3.7°C 20% 7.0 mph SW11.3 kmh SW 12.1 mph19.5 kmh 25.19 in853.0 mb 0.00 in0.0 mm 0.00 in/hr0.0 mm/hr 0.00 in0.0 mm
04:08 PM 84.7°F29.3°C 39.2°F4.0°C 20% 7.0 mph SSW11.3 kmh SSW 11.0 mph17.7 kmh 25.22 in854.0 mb 0.00 in0.0 mm 0.00 in/hr0.0 mm/hr 0.00 in0.0 mm
04:03 PM 85.6°F29.8°C 39.9°F4.4°C 20% 7.0 mph S11.3 kmh S 11.0 mph17.7 kmh 25.22 in854.0 mb 0.00 in0.0 mm 0.00 in/hr0.0 mm/hr 0.00 in0.0 mm
03:58 PM 84.4°F29.1°C 40.1°F4.5°C 21% 7.0 mph S11.3 kmh S 9.2 mph14.8 kmh 25.22 in854.0 mb 0.00 in0.0 mm 0.00 in/hr0.0 mm/hr 0.00 in0.0 mm
03:53 PM 84.0°F28.9°C 39.9°F4.4°C 21% 7.0 mph S11.3 kmh S 10.5 mph16.9 kmh 25.22 in854.0 mb 0.00 in0.0 mm 0.00 in/hr0.0 mm/hr 0.00 in0.0 mm
03:48 PM 84.2°F29.0°C 39.9°F4.4°C 21% 5.0 mph S8.0 kmh S 9.6 mph15.4 kmh 25.22 in854.0 mb 0.00 in0.0 mm 0.00 in/hr0.0 mm/hr 0.00 in0.0 mm
03:43 PM 84.0°F28.9°C 41.0°F5.0°C 22% 5.0 mph S8.0 kmh S 6.7 mph10.8 kmh 25.22 in854.0 mb 0.00 in0.0 mm 0.00 in/hr0.0 mm/hr 0.00 in0.0 mm
03:38 PM 84.2°F29.0°C 41.2°F5.1°C 22% 6.0 mph SW9.7 kmh SW 8.7 mph14.0 kmh 25.22 in854.0 mb 0.00 in0.0 mm 0.00 in/hr0.0 mm/hr 0.00 in0.0 mm
03:33 PM 83.8°F28.8°C 40.8°F4.9°C 22% 6.0 mph SW9.7 kmh SW 10.1 mph16.3 kmh 25.22 in854.0 mb 0.00 in0.0 mm 0.00 in/hr0.0 mm/hr 0.00 in0.0 mm
03:28 PM 84.2°F29.0°C 41.2°F5.1°C 22% 7.0 mph WSW11.3 kmh WSW 11.2 mph18.0 kmh 25.22 in854.0 mb 0.00 in0.0 mm 0.00 in/hr0.0 mm/hr 0.00 in0.0 mm
03:23 PM 84.0°F28.9°C 39.9°F4.4°C 21% 7.0 mph SW11.3 kmh SW 12.5 mph20.1 kmh 25.22 in854.0 mb 0.00 in0.0 mm 0.00 in/hr0.0 mm/hr 0.00 in0.0 mm
03:18 PM 84.6°F29.2°C 40.3°F4.6°C 21% 5.0 mph S8.0 kmh S 12.5 mph20.1 kmh 25.22 in854.0 mb 0.00 in0.0 mm 0.00 in/hr0.0 mm/hr 0.00 in0.0 mm
03:13 PM 85.5°F29.7°C 41.0°F5.0°C 21% 5.0 mph SSW8.0 kmh SSW 8.3 mph13.4 kmh 25.22 in854.0 mb 0.00 in0.0 mm 0.00 in/hr0.0 mm/hr 0.00 in0.0 mm
03:08 PM 84.9°F29.4°C 41.7°F5.4°C 22% 6.0 mph SW9.7 kmh SW 13.0 mph20.9 kmh 25.22 in854.0 mb 0.00 in0.0 mm 0.00 in/hr0.0 mm/hr 0.00 in0.0 mm
03:03 PM 84.2°F29.0°C 41.2°F5.1°C 22% 6.0 mph S9.7 kmh S 11.2 mph18.0 kmh 25.22 in854.0 mb 0.00 in0.0 mm 0.00 in/hr0.0 mm/hr 0.00 in0.0 mm
02:58 PM 84.6°F29.2°C 41.5°F5.3°C 22% 6.0 mph SSE9.7 kmh SSE 9.2 mph14.8 kmh 25.25 in855.1 mb 0.00 in0.0 mm 0.00 in/hr0.0 mm/hr 0.00 in0.0 mm
02:53 PM 84.0°F28.9°C 41.0°F5.0°C 22% 6.0 mph SSE9.7 kmh SSE 10.5 mph16.9 kmh 25.25 in855.1 mb 0.00 in0.0 mm 0.00 in/hr0.0 mm/hr 0.00 in0.0 mm
02:48 PM 83.7°F28.7°C 40.8°F4.9°C 22% 7.0 mph SE11.3 kmh SE 10.5 mph16.9 kmh 25.25 in855.1 mb 0.00 in0.0 mm 0.00 in/hr0.0 mm/hr 0.00 in0.0 mm
02:43 PM 84.4°F29.1°C 42.4°F5.8°C 23% 8.0 mph SE12.9 kmh SE 12.1 mph19.5 kmh 25.25 in855.1 mb 0.00 in0.0 mm 0.00 in/hr0.0 mm/hr 0.00 in0.0 mm
02:38 PM 84.7°F29.3°C 42.8°F6.0°C 23% 7.0 mph SE11.3 kmh SE 11.6 mph18.7 kmh 25.25 in855.1 mb 0.00 in0.0 mm 0.00 in/hr0.0 mm/hr 0.00 in0.0 mm
02:33 PM 85.3°F29.6°C 42.1°F5.6°C 22% 7.0 mph SE11.3 kmh SE 11.0 mph17.7 kmh 25.25 in855.1 mb 0.00 in0.0 mm 0.00 in/hr0.0 mm/hr 0.00 in0.0 mm
02:28 PM 85.1°F29.5°C 44.2°F6.8°C 24% 7.0 mph SE11.3 kmh SE 12.1 mph19.5 kmh 25.25 in855.1 mb 0.00 in0.0 mm 0.00 in/hr0.0 mm/hr 0.00 in0.0 mm
02:23 PM 84.6°F29.2°C 40.3°F4.6°C 21% 6.0 mph SE9.7 kmh SE 12.1 mph19.5 kmh 25.25 in855.1 mb 0.00 in0.0 mm 0.00 in/hr0.0 mm/hr 0.00 in0.0 mm
02:18 PM 84.2°F29.0°C 39.9°F4.4°C 21% 6.0 mph SSE9.7 kmh SSE 9.2 mph14.8 kmh 25.25 in855.1 mb 0.00 in0.0 mm 0.00 in/hr0.0 mm/hr 0.00 in0.0 mm
02:13 PM 83.3°F28.5°C 40.5°F4.7°C 22% 6.0 mph S9.7 kmh S 8.7 mph14.0 kmh 25.25 in855.1 mb 0.00 in0.0 mm 0.00 in/hr0.0 mm/hr 0.00 in0.0 mm
02:08 PM 82.8°F28.2°C 40.1°F4.5°C 22% 6.0 mph SSW9.7 kmh SSW 9.2 mph14.8 kmh 25.25 in855.1 mb 0.00 in0.0 mm 0.00 in/hr0.0 mm/hr 0.00 in0.0 mm
02:03 PM 82.9°F28.3°C 40.1°F4.5°C 22% 6.0 mph SW9.7 kmh SW 13.4 mph21.6 kmh 25.25 in855.1 mb 0.00 in0.0 mm 0.00 in/hr0.0 mm/hr 0.00 in0.0 mm
01:58 PM 82.9°F28.3°C 37.8°F3.2°C 20% 6.0 mph SW9.7 kmh SW 11.0 mph17.7 kmh 25.25 in855.1 mb 0.00 in0.0 mm 0.00 in/hr0.0 mm/hr 0.00 in0.0 mm
01:53 PM 83.7°F28.7°C 38.3°F3.5°C 20% 6.0 mph SSW9.7 kmh SSW 12.5 mph20.1 kmh 25.25 in855.1 mb 0.00 in0.0 mm 0.00 in/hr0.0 mm/hr 0.00 in0.0 mm
01:48 PM 84.0°F28.9°C 37.2°F2.9°C 19% 8.0 mph SSW12.9 kmh SSW 12.1 mph19.5 kmh 25.25 in855.1 mb 0.00 in0.0 mm 0.00 in/hr0.0 mm/hr 0.00 in0.0 mm
01:43 PM 85.6°F29.8°C 37.2°F2.9°C 18% 8.0 mph S12.9 kmh S 13.9 mph22.4 kmh 25.25 in855.1 mb 0.00 in0.0 mm 0.00 in/hr0.0 mm/hr 0.00 in0.0 mm
01:38 PM 85.5°F29.7°C 38.5°F3.6°C 19% 7.0 mph S11.3 kmh S 11.6 mph18.7 kmh 25.25 in855.1 mb 0.00 in0.0 mm 0.00 in/hr0.0 mm/hr 0.00 in0.0 mm
01:33 PM 85.1°F29.5°C 38.1°F3.4°C 19% 7.0 mph S11.3 kmh S 10.5 mph16.9 kmh 25.25 in855.1 mb 0.00 in0.0 mm 0.00 in/hr0.0 mm/hr 0.00 in0.0 mm
01:28 PM 85.1°F29.5°C 38.1°F3.4°C 19% 7.0 mph S11.3 kmh S 12.5 mph20.1 kmh 25.25 in855.1 mb 0.00 in0.0 mm 0.00 in/hr0.0 mm/hr 0.00 in0.0 mm
01:23 PM 83.8°F28.8°C 39.7°F4.3°C 21% 6.0 mph S9.7 kmh S 8.3 mph13.4 kmh 25.25 in855.1 mb 0.00 in0.0 mm 0.00 in/hr0.0 mm/hr 0.00 in0.0 mm
01:18 PM 83.3°F28.5°C 39.2°F4.0°C 21% 6.0 mph S9.7 kmh S 8.7 mph14.0 kmh 25.25 in855.1 mb 0.00 in0.0 mm 0.00 in/hr0.0 mm/hr 0.00 in0.0 mm
01:13 PM 82.6°F28.1°C 38.7°F3.7°C 21% 7.0 mph S11.3 kmh S 11.0 mph17.7 kmh 25.28 in856.1 mb 0.00 in0.0 mm 0.00 in/hr0.0 mm/hr 0.00 in0.0 mm
01:08 PM 82.4°F28.0°C 39.7°F4.3°C 22% 6.0 mph S9.7 kmh S 10.1 mph16.3 kmh 25.28 in856.1 mb 0.00 in0.0 mm 0.00 in/hr0.0 mm/hr 0.00 in0.0 mm
01:03 PM 82.4°F28.0°C 39.7°F4.3°C 22% 5.0 mph S8.0 kmh S 8.3 mph13.4 kmh 25.28 in856.1 mb 0.00 in0.0 mm 0.00 in/hr0.0 mm/hr 0.00 in0.0 mm
12:58 PM 82.4°F28.0°C 39.7°F4.3°C 22% 6.0 mph S9.7 kmh S 8.3 mph13.4 kmh 25.28 in856.1 mb 0.00 in0.0 mm 0.00 in/hr0.0 mm/hr 0.00 in0.0 mm
12:53 PM 81.9°F27.7°C 39.2°F4.0°C 22% 7.0 mph SSW11.3 kmh SSW 11.0 mph17.7 kmh 25.28 in856.1 mb 0.00 in0.0 mm 0.00 in/hr0.0 mm/hr 0.00 in0.0 mm
12:48 PM 81.9°F27.7°C 39.2°F4.0°C 22% 6.0 mph S9.7 kmh S 10.5 mph16.9 kmh 25.28 in856.1 mb 0.00 in0.0 mm 0.00 in/hr0.0 mm/hr 0.00 in0.0 mm
12:43 PM 81.9°F27.7°C 40.5°F4.7°C 23% 5.0 mph S8.0 kmh S 8.3 mph13.4 kmh 25.28 in856.1 mb 0.00 in0.0 mm 0.00 in/hr0.0 mm/hr 0.00 in0.0 mm
12:38 PM 81.9°F27.7°C 43.5°F6.4°C 26% 5.0 mph S8.0 kmh S 7.8 mph12.6 kmh 25.28 in856.1 mb 0.00 in0.0 mm 0.00 in/hr0.0 mm/hr 0.00 in0.0 mm
12:33 PM 81.5°F27.5°C 43.3°F6.3°C 26% 5.0 mph S8.0 kmh S 7.8 mph12.6 kmh 25.28 in856.1 mb 0.00 in0.0 mm 0.00 in/hr0.0 mm/hr 0.00 in0.0 mm
12:28 PM 81.1°F27.3°C 43.0°F6.1°C 26% 5.0 mph S8.0 kmh S 7.8 mph12.6 kmh 25.28 in856.1 mb 0.00 in0.0 mm 0.00 in/hr0.0 mm/hr 0.00 in0.0 mm
12:23 PM 80.6°F27.0°C 42.4°F5.8°C 26% 4.0 mph SSE6.4 kmh SSE 7.4 mph11.9 kmh 25.28 in856.1 mb 0.00 in0.0 mm 0.00 in/hr0.0 mm/hr 0.00 in0.0 mm
12:18 PM 80.2°F26.8°C 45.1°F7.3°C 29% 4.0 mph SSE6.4 kmh SSE 6.3 mph10.1 kmh 25.28 in856.1 mb 0.00 in0.0 mm 0.00 in/hr0.0 mm/hr 0.00 in0.0 mm
12:13 PM 79.7°F26.5°C 45.5°F7.5°C 30% 4.0 mph SSE6.4 kmh SSE 6.3 mph10.1 kmh 25.28 in856.1 mb 0.00 in0.0 mm 0.00 in/hr0.0 mm/hr 0.00 in0.0 mm
12:08 PM 79.3°F26.3°C 45.1°F7.3°C 30% 4.0 mph SSE6.4 kmh SSE 6.3 mph10.1 kmh 25.28 in856.1 mb 0.00 in0.0 mm 0.00 in/hr0.0 mm/hr 0.00 in0.0 mm
12:03 PM 79.0°F26.1°C 45.0°F7.2°C 30% 4.0 mph SSE6.4 kmh SSE 5.8 mph9.3 kmh 25.28 in856.1 mb 0.00 in0.0 mm 0.00 in/hr0.0 mm/hr 0.00 in0.0 mm
11:58 AM 78.8°F26.0°C 44.8°F7.1°C 30% 4.0 mph SSE6.4 kmh SSE 6.3 mph10.1 kmh 25.28 in856.1 mb 0.00 in0.0 mm 0.00 in/hr0.0 mm/hr 0.00 in0.0 mm
11:53 AM 78.6°F25.9°C 46.2°F7.9°C 32% 4.0 mph SSE6.4 kmh SSE 5.8 mph9.3 kmh 25.28 in856.1 mb 0.00 in0.0 mm 0.00 in/hr0.0 mm/hr 0.00 in0.0 mm
11:48 AM 78.4°F25.8°C 45.3°F7.4°C 31% 3.0 mph SE4.8 kmh SE 5.8 mph9.3 kmh 25.28 in856.1 mb 0.00 in0.0 mm 0.00 in/hr0.0 mm/hr 0.00 in0.0 mm
11:43 AM 78.4°F25.8°C 46.0°F7.8°C 32% 3.0 mph SE4.8 kmh SE 4.9 mph7.9 kmh 25.31 in857.1 mb 0.00 in0.0 mm 0.00 in/hr0.0 mm/hr 0.00 in0.0 mm
11:38 AM 78.1°F25.6°C 46.6°F8.1°C 33% 4.0 mph SE6.4 kmh SE 6.3 mph10.1 kmh 25.31 in857.1 mb 0.00 in0.0 mm 0.00 in/hr0.0 mm/hr 0.00 in0.0 mm
11:33 AM 77.9°F25.5°C 45.7°F7.6°C 32% 4.0 mph SE6.4 kmh SE 5.8 mph9.3 kmh 25.31 in857.1 mb 0.00 in0.0 mm 0.00 in/hr0.0 mm/hr 0.00 in0.0 mm
11:28 AM 77.9°F25.5°C 46.4°F8.0°C 33% 4.0 mph SSE6.4 kmh SSE 6.3 mph10.1 kmh 25.31 in857.1 mb 0.00 in0.0 mm 0.00 in/hr0.0 mm/hr 0.00 in0.0 mm
11:23 AM 77.7°F25.4°C 47.1°F8.4°C 34% 4.0 mph SSE6.4 kmh SSE 6.3 mph10.1 kmh 25.31 in857.1 mb 0.00 in0.0 mm 0.00 in/hr0.0 mm/hr 0.00 in0.0 mm
11:18 AM 77.7°F25.4°C 46.2°F7.9°C 33% 5.0 mph SSE8.0 kmh SSE 6.9 mph11.1 kmh 25.31 in857.1 mb 0.00 in0.0 mm 0.00 in/hr0.0 mm/hr 0.00 in0.0 mm
11:13 AM 77.7°F25.4°C 46.2°F7.9°C 33% 5.0 mph SSE8.0 kmh SSE 6.7 mph10.8 kmh 25.31 in857.1 mb 0.00 in0.0 mm 0.00 in/hr0.0 mm/hr 0.00 in0.0 mm
11:08 AM 77.9°F25.5°C 46.4°F8.0°C 33% 5.0 mph SSE8.0 kmh SSE 6.9 mph11.1 kmh 25.31 in857.1 mb 0.00 in0.0 mm 0.00 in/hr0.0 mm/hr 0.00 in0.0 mm
11:02 AM 78.1°F25.6°C 45.9°F7.7°C 32% 5.0 mph S8.0 kmh S 6.9 mph11.1 kmh 25.31 in857.1 mb 0.00 in0.0 mm 0.00 in/hr0.0 mm/hr 0.00 in0.0 mm
10:57 AM 78.1°F25.6°C 45.9°F7.7°C 32% 5.0 mph SSE8.0 kmh SSE 8.3 mph13.4 kmh 25.31 in857.1 mb 0.00 in0.0 mm 0.00 in/hr0.0 mm/hr 0.00 in0.0 mm
10:52 AM 78.3°F25.7°C 46.0°F7.8°C 32% 3.0 mph SE4.8 kmh SE 7.4 mph11.9 kmh 25.31 in857.1 mb 0.00 in0.0 mm 0.00 in/hr0.0 mm/hr 0.00 in0.0 mm
10:47 AM 78.4°F25.8°C 45.3°F7.4°C 31% 1.0 mph SE1.6 kmh SE 6.7 mph10.8 kmh 25.31 in857.1 mb 0.00 in0.0 mm 0.00 in/hr0.0 mm/hr 0.00 in0.0 mm
10:42 AM 78.4°F25.8°C 45.3°F7.4°C 31% 2.0 mph SSE3.2 kmh SSE 4.5 mph7.2 kmh 25.31 in857.1 mb 0.00 in0.0 mm 0.00 in/hr0.0 mm/hr 0.00 in0.0 mm
10:37 AM 78.4°F25.8°C 45.3°F7.4°C 31% 4.0 mph SW6.4 kmh SW 5.8 mph9.3 kmh 25.31 in857.1 mb 0.00 in0.0 mm 0.00 in/hr0.0 mm/hr 0.00 in0.0 mm
10:32 AM 78.4°F25.8°C 45.3°F7.4°C 31% 3.0 mph SW4.8 kmh SW 6.9 mph11.1 kmh 25.31 in857.1 mb 0.00 in0.0 mm 0.00 in/hr0.0 mm/hr 0.00 in0.0 mm
10:27 AM 78.6°F25.9°C 45.5°F7.5°C 31% 3.0 mph S4.8 kmh S 6.3 mph10.1 kmh 25.31 in857.1 mb 0.00 in0.0 mm 0.00 in/hr0.0 mm/hr 0.00 in0.0 mm
10:22 AM 78.6°F25.9°C 45.5°F7.5°C 31% 4.0 mph S6.4 kmh S 6.7 mph10.8 kmh 25.31 in857.1 mb 0.00 in0.0 mm 0.00 in/hr0.0 mm/hr 0.00 in0.0 mm
10:17 AM 78.6°F25.9°C 45.5°F7.5°C 31% 5.0 mph S8.0 kmh S 7.8 mph12.6 kmh 25.31 in857.1 mb 0.00 in0.0 mm 0.00 in/hr0.0 mm/hr 0.00 in0.0 mm
10:12 AM 79.2°F26.2°C 45.0°F7.2°C 30% 5.0 mph S8.0 kmh S 8.7 mph14.0 kmh 25.31 in857.1 mb 0.00 in0.0 mm 0.00 in/hr0.0 mm/hr 0.00 in0.0 mm
10:07 AM 80.1°F26.7°C 45.9°F7.7°C 30% 4.0 mph S6.4 kmh S 6.9 mph11.1 kmh 25.31 in857.1 mb 0.00 in0.0 mm 0.00 in/hr0.0 mm/hr 0.00 in0.0 mm
10:02 AM 79.2°F26.2°C 45.9°F7.7°C 31% 4.0 mph SSW6.4 kmh SSW 7.8 mph12.6 kmh 25.31 in857.1 mb 0.00 in0.0 mm 0.00 in/hr0.0 mm/hr 0.00 in0.0 mm
09:57 AM 78.1°F25.6°C 45.0°F7.2°C 31% 3.0 mph S4.8 kmh S 6.9 mph11.1 kmh 25.31 in857.1 mb 0.00 in0.0 mm 0.00 in/hr0.0 mm/hr 0.00 in0.0 mm
09:52 AM 78.4°F25.8°C 46.0°F7.8°C 32% 3.0 mph S4.8 kmh S 4.9 mph7.9 kmh 25.31 in857.1 mb 0.00 in0.0 mm 0.00 in/hr0.0 mm/hr 0.00 in0.0 mm
09:47 AM 78.3°F25.7°C 45.1°F7.3°C 31% 4.0 mph S6.4 kmh S 6.7 mph10.8 kmh 25.31 in857.1 mb 0.00 in0.0 mm 0.00 in/hr0.0 mm/hr 0.00 in0.0 mm
09:42 AM 78.8°F26.0°C 45.5°F7.5°C 31% 4.0 mph SE6.4 kmh SE 7.4 mph11.9 kmh 25.31 in857.1 mb 0.00 in0.0 mm 0.00 in/hr0.0 mm/hr 0.00 in0.0 mm
09:37 AM 78.8°F26.0°C 45.5°F7.5°C 31% 4.0 mph SSE6.4 kmh SSE 7.4 mph11.9 kmh 25.31 in857.1 mb 0.00 in0.0 mm 0.00 in/hr0.0 mm/hr 0.00 in0.0 mm
09:32 AM 79.2°F26.2°C 45.9°F7.7°C 31% 3.0 mph S4.8 kmh S 6.9 mph11.1 kmh 25.31 in857.1 mb 0.00 in0.0 mm 0.00 in/hr0.0 mm/hr 0.00 in0.0 mm
09:27 AM 79.0°F26.1°C 45.7°F7.6°C 31% 4.0 mph S6.4 kmh S 5.4 mph8.7 kmh 25.31 in857.1 mb 0.00 in0.0 mm 0.00 in/hr0.0 mm/hr 0.00 in0.0 mm
09:22 AM 78.6°F25.9°C 45.5°F7.5°C 31% 4.0 mph SSE6.4 kmh SSE 6.7 mph10.8 kmh 25.31 in857.1 mb 0.00 in0.0 mm 0.00 in/hr0.0 mm/hr 0.00 in0.0 mm
09:17 AM 78.4°F25.8°C 45.3°F7.4°C 31% 3.0 mph SSW4.8 kmh SSW 6.7 mph10.8 kmh 25.31 in857.1 mb 0.00 in0.0 mm 0.00 in/hr0.0 mm/hr 0.00 in0.0 mm
09:12 AM 78.3°F25.7°C 45.1°F7.3°C 31% 2.0 mph WSW3.2 kmh WSW 6.3 mph10.1 kmh 25.31 in857.1 mb 0.00 in0.0 mm 0.00 in/hr0.0 mm/hr 0.00 in0.0 mm
09:07 AM 77.7°F25.4°C 45.5°F7.5°C 32% 2.0 mph WSW3.2 kmh WSW 4.5 mph7.2 kmh 25.31 in857.1 mb 0.00 in0.0 mm 0.00 in/hr0.0 mm/hr 0.00 in0.0 mm
09:02 AM 77.4°F25.2°C 46.0°F7.8°C 33% 2.0 mph WSW3.2 kmh WSW 4.9 mph7.9 kmh 25.31 in857.1 mb 0.00 in0.0 mm 0.00 in/hr0.0 mm/hr 0.00 in0.0 mm
08:57 AM 77.2°F25.1°C 45.9°F7.7°C 33% 2.0 mph WSW3.2 kmh WSW 4.0 mph6.4 kmh 25.31 in857.1 mb 0.00 in0.0 mm 0.00 in/hr0.0 mm/hr 0.00 in0.0 mm
08:52 AM 77.5°F25.3°C 46.2°F7.9°C 33% 1.0 mph WSW1.6 kmh WSW 4.0 mph6.4 kmh 25.31 in857.1 mb 0.00 in0.0 mm 0.00 in/hr0.0 mm/hr 0.00 in0.0 mm
08:47 AM 77.9°F25.5°C 46.4°F8.0°C 33% Calm Calm 3.1 mph5.0 kmh 25.31 in857.1 mb 0.00 in0.0 mm 0.00 in/hr0.0 mm/hr 0.00 in0.0 mm
08:42 AM 77.4°F25.2°C 46.0°F7.8°C 33% Calm Calm 4.5 mph7.2 kmh 25.31 in857.1 mb 0.00 in0.0 mm 0.00 in/hr0.0 mm/hr 0.00 in0.0 mm
08:37 AM 77.2°F25.1°C 47.3°F8.5°C 35% Calm Calm 3.1 mph5.0 kmh 25.31 in857.1 mb 0.00 in0.0 mm 0.00 in/hr0.0 mm/hr 0.00 in0.0 mm
08:32 AM 76.1°F24.5°C 48.6°F9.2°C 38% Calm Calm 3.1 mph5.0 kmh 25.31 in857.1 mb 0.00 in0.0 mm 0.00 in/hr0.0 mm/hr 0.00 in0.0 mm
08:27 AM 75.2°F24.0°C 50.5°F10.3°C 42% Calm Calm -- 25.31 in857.1 mb 0.00 in0.0 mm 0.00 in/hr0.0 mm/hr 0.00 in0.0 mm
08:22 AM 74.5°F23.6°C 51.8°F11.0°C 45% Calm Calm -- 25.31 in857.1 mb 0.00 in0.0 mm 0.00 in/hr0.0 mm/hr 0.00 in0.0 mm
08:17 AM 73.6°F23.1°C 51.4°F10.8°C 46% 1.0 mph WSW1.6 kmh WSW 3.6 mph5.8 kmh 25.31 in857.1 mb 0.00 in0.0 mm 0.00 in/hr0.0 mm/hr 0.00 in0.0 mm
08:12 AM 73.0°F22.8°C 52.2°F11.2°C 48% Calm Calm 3.6 mph5.8 kmh 25.28 in856.1 mb 0.00 in0.0 mm 0.00 in/hr0.0 mm/hr 0.00 in0.0 mm
08:07 AM 72.3°F22.4°C 53.2°F11.8°C 51% Calm Calm 3.1 mph5.0 kmh 25.28 in856.1 mb 0.00 in0.0 mm 0.00 in/hr0.0 mm/hr 0.00 in0.0 mm
08:02 AM 71.8°F22.1°C 53.8°F12.1°C 53% Calm Calm -- 25.28 in856.1 mb 0.00 in0.0 mm 0.00 in/hr0.0 mm/hr 0.00 in0.0 mm
07:57 AM 71.4°F21.9°C 52.9°F11.6°C 52% Calm Calm 2.7 mph4.3 kmh 25.28 in856.1 mb 0.00 in0.0 mm 0.00 in/hr0.0 mm/hr 0.00 in0.0 mm
07:52 AM 71.2°F21.8°C 52.7°F11.5°C 52% 1.0 mph WSW1.6 kmh WSW 3.1 mph5.0 kmh 25.28 in856.1 mb 0.00 in0.0 mm 0.00 in/hr0.0 mm/hr 0.00 in0.0 mm
07:47 AM 71.4°F21.9°C 52.9°F11.6°C 52% 2.0 mph WSW3.2 kmh WSW 4.0 mph6.4 kmh 25.28 in856.1 mb 0.00 in0.0 mm 0.00 in/hr0.0 mm/hr 0.00 in0.0 mm
07:42 AM 72.0°F22.2°C 53.4°F11.9°C 52% 2.0 mph WSW3.2 kmh WSW 4.0 mph6.4 kmh 25.31 in857.1 mb 0.00 in0.0 mm 0.00 in/hr0.0 mm/hr 0.00 in0.0 mm
07:37 AM 72.0°F22.2°C 50.5°F10.3°C 47% 2.0 mph WSW3.2 kmh WSW 4.0 mph6.4 kmh 25.31 in857.1 mb 0.00 in0.0 mm 0.00 in/hr0.0 mm/hr 0.00 in0.0 mm
07:32 AM 71.8°F22.1°C 49.8°F9.9°C 46% 4.0 mph W6.4 kmh W 4.5 mph7.2 kmh 25.31 in857.1 mb 0.00 in0.0 mm 0.00 in/hr0.0 mm/hr 0.00 in0.0 mm
07:27 AM 71.8°F22.1°C 49.8°F9.9°C 46% 4.0 mph W6.4 kmh W 5.8 mph9.3 kmh 25.28 in856.1 mb 0.00 in0.0 mm 0.00 in/hr0.0 mm/hr 0.00 in0.0 mm
07:22 AM 72.0°F22.2°C 51.3°F10.7°C 48% 3.0 mph WNW4.8 kmh WNW 5.4 mph8.7 kmh 25.28 in856.1 mb 0.00 in0.0 mm 0.00 in/hr0.0 mm/hr 0.00 in0.0 mm
07:17 AM 72.7°F22.6°C 49.5°F9.7°C 44% 1.0 mph N1.6 kmh N 7.4 mph11.9 kmh 25.28 in856.1 mb 0.00 in0.0 mm 0.00 in/hr0.0 mm/hr 0.00 in0.0 mm
07:12 AM 72.7°F22.6°C 48.9°F9.4°C 43% Calm Calm -- 25.28 in856.1 mb 0.00 in0.0 mm 0.00 in/hr0.0 mm/hr 0.00 in0.0 mm
07:07 AM 72.3°F22.4°C 49.1°F9.5°C 44% Calm Calm -- 25.28 in856.1 mb 0.00 in0.0 mm 0.00 in/hr0.0 mm/hr 0.00 in0.0 mm
07:02 AM 72.3°F22.4°C 48.6°F9.2°C 43% Calm Calm -- 25.28 in856.1 mb 0.00 in0.0 mm 0.00 in/hr0.0 mm/hr 0.00 in0.0 mm
06:57 AM 72.3°F22.4°C 49.1°F9.5°C 44% Calm Calm -- 25.28 in856.1 mb 0.00 in0.0 mm 0.00 in/hr0.0 mm/hr 0.00 in0.0 mm
06:52 AM 72.0°F22.2°C 48.2°F9.0°C 43% Calm Calm -- 25.28 in856.1 mb 0.00 in0.0 mm 0.00 in/hr0.0 mm/hr 0.00 in0.0 mm
06:47 AM 72.0°F22.2°C 48.2°F9.0°C 43% Calm Calm -- 25.28 in856.1 mb 0.00 in0.0 mm 0.00 in/hr0.0 mm/hr 0.00 in0.0 mm
06:42 AM 71.6°F22.0°C 48.6°F9.2°C 44% Calm Calm -- 25.28 in856.1 mb 0.00 in0.0 mm 0.00 in/hr0.0 mm/hr 0.00 in0.0 mm
06:37 AM 71.4°F21.9°C 49.5°F9.7°C 46% Calm Calm 3.1 mph5.0 kmh 25.28 in856.1 mb 0.00 in0.0 mm 0.00 in/hr0.0 mm/hr 0.00 in0.0 mm
06:32 AM 71.2°F21.8°C 48.2°F9.0°C 44% Calm Calm -- 25.28 in856.1 mb 0.00 in0.0 mm 0.00 in/hr0.0 mm/hr 0.00 in0.0 mm
06:27 AM 71.2°F21.8°C 48.2°F9.0°C 44% Calm Calm -- 25.28 in856.1 mb 0.00 in0.0 mm 0.00 in/hr0.0 mm/hr 0.00 in0.0 mm
06:22 AM 71.4°F21.9°C 48.4°F9.1°C 44% Calm Calm 3.1 mph5.0 kmh 25.28 in856.1 mb 0.00 in0.0 mm 0.00 in/hr0.0 mm/hr 0.00 in0.0 mm
06:17 AM 71.4°F21.9°C 48.4°F9.1°C 44% Calm Calm 3.1 mph5.0 kmh 25.28 in856.1 mb 0.00 in0.0 mm 0.00 in/hr0.0 mm/hr 0.00 in0.0 mm
06:12 AM 71.4°F21.9°C 47.7°F8.7°C 43% Calm Calm -- 25.28 in856.1 mb 0.00 in0.0 mm 0.00 in/hr0.0 mm/hr 0.00 in0.0 mm
06:07 AM 71.2°F21.8°C 47.7°F8.7°C 43% Calm Calm -- 25.28 in856.1 mb 0.00 in0.0 mm 0.00 in/hr0.0 mm/hr 0.00 in0.0 mm
06:02 AM 71.4°F21.9°C 47.7°F8.7°C 43% Calm Calm 2.7 mph4.3 kmh 25.28 in856.1 mb 0.00 in0.0 mm 0.00 in/hr0.0 mm/hr 0.00 in0.0 mm
05:57 AM 71.4°F21.9°C 47.1°F8.4°C 42% Calm Calm -- 25.28 in856.1 mb 0.00 in0.0 mm 0.00 in/hr0.0 mm/hr 0.00 in0.0 mm
05:52 AM 71.2°F21.8°C 47.7°F8.7°C 43% Calm Calm 2.7 mph4.3 kmh 25.28 in856.1 mb 0.00 in0.0 mm 0.00 in/hr0.0 mm/hr 0.00 in0.0 mm
05:47 AM 70.9°F21.6°C 47.3°F8.5°C 43% Calm Calm 2.7 mph4.3 kmh 25.28 in856.1 mb 0.00 in0.0 mm 0.00 in/hr0.0 mm/hr 0.00 in0.0 mm
05:42 AM 70.7°F21.5°C 46.4°F8.0°C 42% Calm Calm 2.7 mph4.3 kmh 25.28 in856.1 mb 0.00 in0.0 mm 0.00 in/hr0.0 mm/hr 0.00 in0.0 mm
05:37 AM 70.7°F21.5°C 47.1°F8.4°C 43% Calm Calm -- 25.28 in856.1 mb 0.00 in0.0 mm 0.00 in/hr0.0 mm/hr 0.00 in0.0 mm
05:32 AM 70.5°F21.4°C 47.5°F8.6°C 44% Calm Calm -- 25.28 in856.1 mb 0.00 in0.0 mm 0.00 in/hr0.0 mm/hr 0.00 in0.0 mm
05:27 AM 70.2°F21.2°C 47.8°F8.8°C 45% Calm Calm -- 25.28 in856.1 mb 0.00 in0.0 mm 0.00 in/hr0.0 mm/hr 0.00 in0.0 mm
05:22 AM 69.8°F21.0°C 48.0°F8.9°C 46% Calm Calm -- 25.28 in856.1 mb 0.00 in0.0 mm 0.00 in/hr0.0 mm/hr 0.00 in0.0 mm
05:17 AM 69.8°F21.0°C 48.6°F9.2°C 47% Calm Calm -- 25.28 in856.1 mb 0.00 in0.0 mm 0.00 in/hr0.0 mm/hr 0.00 in0.0 mm
05:11 AM 70.0°F21.1°C 48.7°F9.3°C 47% Calm Calm -- 25.28 in856.1 mb 0.00 in0.0 mm 0.00 in/hr0.0 mm/hr 0.00 in0.0 mm
05:07 AM 69.8°F21.0°C 47.5°F8.6°C 45% Calm Calm -- 25.28 in856.1 mb 0.00 in0.0 mm 0.00 in/hr0.0 mm/hr 0.00 in0.0 mm
05:01 AM 70.2°F21.2°C 47.8°F8.8°C 45% Calm Calm -- 25.28 in856.1 mb 0.00 in0.0 mm 0.00 in/hr0.0 mm/hr 0.00 in0.0 mm
04:56 AM 70.5°F21.4°C 46.9°F8.3°C 43% Calm Calm -- 25.28 in856.1 mb 0.00 in0.0 mm 0.00 in/hr0.0 mm/hr 0.00 in0.0 mm
04:51 AM 71.1°F21.7°C 46.8°F8.2°C 42% Calm Calm -- 25.28 in856.1 mb 0.00 in0.0 mm 0.00 in/hr0.0 mm/hr 0.00 in0.0 mm
04:46 AM 71.6°F22.0°C 46.6°F8.1°C 41% Calm Calm -- 25.28 in856.1 mb 0.00 in0.0 mm 0.00 in/hr0.0 mm/hr 0.00 in0.0 mm
04:41 AM 71.6°F22.0°C 45.3°F7.4°C 39% Calm Calm -- 25.28 in856.1 mb 0.00 in0.0 mm 0.00 in/hr0.0 mm/hr 0.00 in0.0 mm
04:36 AM 71.6°F22.0°C 46.0°F7.8°C 40% Calm Calm -- 25.28 in856.1 mb 0.00 in0.0 mm 0.00 in/hr0.0 mm/hr 0.00 in0.0 mm
04:31 AM 71.4°F21.9°C 46.4°F8.0°C 41% Calm Calm -- 25.28 in856.1 mb 0.00 in0.0 mm 0.00 in/hr0.0 mm/hr 0.00 in0.0 mm
04:26 AM 71.4°F21.9°C 46.4°F8.0°C 41% Calm Calm -- 25.25 in855.1 mb 0.00 in0.0 mm 0.00 in/hr0.0 mm/hr 0.00 in0.0 mm
04:21 AM 71.1°F21.7°C 45.5°F7.5°C 40% Calm Calm -- 25.25 in855.1 mb 0.00 in0.0 mm 0.00 in/hr0.0 mm/hr 0.00 in0.0 mm
04:16 AM 71.1°F21.7°C 46.2°F7.9°C 41% Calm Calm -- 25.25 in855.1 mb 0.00 in0.0 mm 0.00 in/hr0.0 mm/hr 0.00 in0.0 mm
04:11 AM 71.4°F21.9°C 47.1°F8.4°C 42% Calm Calm -- 25.25 in855.1 mb 0.00 in0.0 mm 0.00 in/hr0.0 mm/hr 0.00 in0.0 mm
04:06 AM 71.8°F22.1°C 47.5°F8.6°C 42% Calm Calm -- 25.25 in855.1 mb 0.00 in0.0 mm 0.00 in/hr0.0 mm/hr 0.00 in0.0 mm
04:01 AM 72.3°F22.4°C 47.8°F8.8°C 42% 2.0 mph NNW3.2 kmh NNW 4.0 mph6.4 kmh 25.25 in855.1 mb 0.00 in0.0 mm 0.00 in/hr0.0 mm/hr 0.00 in0.0 mm
03:56 AM 72.9°F22.7°C 45.7°F7.6°C 38% 2.0 mph NW3.2 kmh NW 4.9 mph7.9 kmh 25.25 in855.1 mb 0.00 in0.0 mm 0.00 in/hr0.0 mm/hr 0.00 in0.0 mm
03:51 AM 73.4°F23.0°C 44.1°F6.7°C 35% 2.0 mph NW3.2 kmh NW 4.9 mph7.9 kmh 25.25 in855.1 mb 0.00 in0.0 mm 0.00 in/hr0.0 mm/hr 0.00 in0.0 mm
03:46 AM 73.8°F23.2°C 44.4°F6.9°C 35% 1.0 mph NW1.6 kmh NW 4.0 mph6.4 kmh 25.25 in855.1 mb 0.00 in0.0 mm 0.00 in/hr0.0 mm/hr 0.00 in0.0 mm
03:41 AM 74.3°F23.5°C 42.4°F5.8°C 32% Calm Calm 3.1 mph5.0 kmh 25.25 in855.1 mb 0.00 in0.0 mm 0.00 in/hr0.0 mm/hr 0.00 in0.0 mm
03:36 AM 74.7°F23.7°C 42.8°F6.0°C 32% Calm Calm 2.7 mph4.3 kmh 25.25 in855.1 mb 0.00 in0.0 mm 0.00 in/hr0.0 mm/hr 0.00 in0.0 mm
03:31 AM 75.6°F24.2°C 43.7°F6.5°C 32% Calm Calm -- 25.25 in855.1 mb 0.00 in0.0 mm 0.00 in/hr0.0 mm/hr 0.00 in0.0 mm
03:26 AM 76.1°F24.5°C 43.3°F6.3°C 31% 1.0 mph NW1.6 kmh NW 3.1 mph5.0 kmh 25.25 in855.1 mb 0.00 in0.0 mm 0.00 in/hr0.0 mm/hr 0.00 in0.0 mm
03:21 AM 75.9°F24.4°C 43.2°F6.2°C 31% 3.0 mph NW4.8 kmh NW 3.6 mph5.8 kmh 25.25 in855.1 mb 0.00 in0.0 mm 0.00 in/hr0.0 mm/hr 0.00 in0.0 mm
03:16 AM 75.4°F24.1°C 43.5°F6.4°C 32% 3.0 mph NW4.8 kmh NW 4.5 mph7.2 kmh 25.25 in855.1 mb 0.00 in0.0 mm 0.00 in/hr0.0 mm/hr 0.00 in0.0 mm
03:11 AM 75.4°F24.1°C 43.5°F6.4°C 32% 2.0 mph W3.2 kmh W 4.5 mph7.2 kmh 25.25 in855.1 mb 0.00 in0.0 mm 0.00 in/hr0.0 mm/hr 0.00 in0.0 mm
03:06 AM 75.4°F24.1°C 43.5°F6.4°C 32% 1.0 mph W1.6 kmh W 3.6 mph5.8 kmh 25.25 in855.1 mb 0.00 in0.0 mm 0.00 in/hr0.0 mm/hr 0.00 in0.0 mm
03:01 AM 76.3°F24.6°C 42.6°F5.9°C 30% 1.0 mph WSW1.6 kmh WSW 4.0 mph6.4 kmh 25.25 in855.1 mb 0.00 in0.0 mm 0.00 in/hr0.0 mm/hr 0.00 in0.0 mm
02:56 AM 76.8°F24.9°C 42.1°F5.6°C 29% 1.0 mph WSW1.6 kmh WSW 3.6 mph5.8 kmh 25.25 in855.1 mb 0.00 in0.0 mm 0.00 in/hr0.0 mm/hr 0.00 in0.0 mm
02:51 AM 77.0°F25.0°C 42.3°F5.7°C 29% 3.0 mph WSW4.8 kmh WSW 4.5 mph7.2 kmh 25.25 in855.1 mb 0.00 in0.0 mm 0.00 in/hr0.0 mm/hr 0.00 in0.0 mm
02:46 AM 77.4°F25.2°C 42.6°F5.9°C 29% 2.0 mph SE3.2 kmh SE 7.4 mph11.9 kmh 25.25 in855.1 mb 0.00 in0.0 mm 0.00 in/hr0.0 mm/hr 0.00 in0.0 mm
02:41 AM 77.7°F25.4°C 40.1°F4.5°C 26% Calm Calm 2.7 mph4.3 kmh 25.25 in855.1 mb 0.00 in0.0 mm 0.00 in/hr0.0 mm/hr 0.00 in0.0 mm
02:36 AM 77.9°F25.5°C 39.2°F4.0°C 25% 2.0 mph SE3.2 kmh SE 6.7 mph10.8 kmh 25.25 in855.1 mb 0.00 in0.0 mm 0.00 in/hr0.0 mm/hr 0.00 in0.0 mm
02:31 AM 77.9°F25.5°C 39.2°F4.0°C 25% 3.0 mph SSW4.8 kmh SSW 6.9 mph11.1 kmh 25.25 in855.1 mb 0.00 in0.0 mm 0.00 in/hr0.0 mm/hr 0.00 in0.0 mm
02:26 AM 78.3°F25.7°C 39.6°F4.2°C 25% 2.0 mph SW3.2 kmh SW 8.3 mph13.4 kmh 25.25 in855.1 mb 0.00 in0.0 mm 0.00 in/hr0.0 mm/hr 0.00 in0.0 mm
02:21 AM 78.6°F25.9°C 37.8°F3.2°C 23% 2.0 mph SW3.2 kmh SW 5.4 mph8.7 kmh 25.25 in855.1 mb 0.00 in0.0 mm 0.00 in/hr0.0 mm/hr 0.00 in0.0 mm
02:16 AM 78.8°F26.0°C 37.9°F3.3°C 23% 3.0 mph N4.8 kmh N 7.4 mph11.9 kmh 25.25 in855.1 mb 0.00 in0.0 mm 0.00 in/hr0.0 mm/hr 0.00 in0.0 mm
02:11 AM 79.0°F26.1°C 37.9°F3.3°C 23% 4.0 mph NNW6.4 kmh NNW 6.9 mph11.1 kmh 25.25 in855.1 mb 0.00 in0.0 mm 0.00 in/hr0.0 mm/hr 0.00 in0.0 mm
02:06 AM 78.8°F26.0°C 37.9°F3.3°C 23% 5.0 mph N8.0 kmh N 8.7 mph14.0 kmh 25.25 in855.1 mb 0.00 in0.0 mm 0.00 in/hr0.0 mm/hr 0.00 in0.0 mm
02:01 AM 79.0°F26.1°C 37.9°F3.3°C 23% 6.0 mph NE9.7 kmh NE 11.6 mph18.7 kmh 25.25 in855.1 mb 0.00 in0.0 mm 0.00 in/hr0.0 mm/hr 0.00 in0.0 mm
01:56 AM 79.0°F26.1°C 37.9°F3.3°C 23% 5.0 mph NE8.0 kmh NE 10.1 mph16.3 kmh 25.25 in855.1 mb 0.00 in0.0 mm 0.00 in/hr0.0 mm/hr 0.00 in0.0 mm
01:51 AM 79.0°F26.1°C 37.9°F3.3°C 23% 5.0 mph E8.0 kmh E 8.3 mph13.4 kmh 25.25 in855.1 mb 0.00 in0.0 mm 0.00 in/hr0.0 mm/hr 0.00 in0.0 mm
01:46 AM 79.2°F26.2°C 38.1°F3.4°C 23% 5.0 mph ENE8.0 kmh ENE 13.0 mph20.9 kmh 25.25 in855.1 mb 0.00 in0.0 mm 0.00 in/hr0.0 mm/hr 0.00 in0.0 mm
01:41 AM 79.3°F26.3°C 37.2°F2.9°C 22% 5.0 mph ENE8.0 kmh ENE 10.1 mph16.3 kmh 25.25 in855.1 mb 0.00 in0.0 mm 0.00 in/hr0.0 mm/hr 0.00 in0.0 mm
01:36 AM 79.3°F26.3°C 37.2°F2.9°C 22% 6.0 mph ENE9.7 kmh ENE 14.8 mph23.8 kmh 25.25 in855.1 mb 0.00 in0.0 mm 0.00 in/hr0.0 mm/hr 0.00 in0.0 mm
01:31 AM 79.3°F26.3°C 37.2°F2.9°C 22% 6.0 mph ENE9.7 kmh ENE 13.9 mph22.4 kmh 25.25 in855.1 mb 0.00 in0.0 mm 0.00 in/hr0.0 mm/hr 0.00 in0.0 mm
01:26 AM 79.2°F26.2°C 37.0°F2.8°C 22% 7.0 mph ENE11.3 kmh ENE 18.6 mph29.9 kmh 25.25 in855.1 mb 0.00 in0.0 mm 0.00 in/hr0.0 mm/hr 0.00 in0.0 mm
01:21 AM 79.2°F26.2°C 37.0°F2.8°C 22% 5.0 mph E8.0 kmh E 14.3 mph23.0 kmh 25.25 in855.1 mb 0.00 in0.0 mm 0.00 in/hr0.0 mm/hr 0.00 in0.0 mm
01:16 AM 79.0°F26.1°C 36.9°F2.7°C 22% 4.0 mph NNE6.4 kmh NNE 9.2 mph14.8 kmh 25.25 in855.1 mb 0.00 in0.0 mm 0.00 in/hr0.0 mm/hr 0.00 in0.0 mm
01:11 AM 78.8°F26.0°C 35.6°F2.0°C 21% 6.0 mph NE9.7 kmh NE 9.6 mph15.4 kmh 25.25 in855.1 mb 0.00 in0.0 mm 0.00 in/hr0.0 mm/hr 0.00 in0.0 mm
01:06 AM 79.7°F26.5°C 36.3°F2.4°C 21% 8.0 mph NE12.9 kmh NE 13.0 mph20.9 kmh 25.25 in855.1 mb 0.00 in0.0 mm 0.00 in/hr0.0 mm/hr 0.00 in0.0 mm
01:01 AM 79.5°F26.4°C 36.1°F2.3°C 21% 8.0 mph ENE12.9 kmh ENE 16.3 mph26.2 kmh 25.25 in855.1 mb 0.00 in0.0 mm 0.00 in/hr0.0 mm/hr 0.00 in0.0 mm
12:56 AM 79.5°F26.4°C 36.1°F2.3°C 21% 6.0 mph ENE9.7 kmh ENE 13.9 mph22.4 kmh 25.22 in854.0 mb 0.00 in0.0 mm 0.00 in/hr0.0 mm/hr 0.00 in0.0 mm
12:51 AM 79.7°F26.5°C 36.3°F2.4°C 21% 4.0 mph NE6.4 kmh NE 15.2 mph24.5 kmh 25.22 in854.0 mb 0.00 in0.0 mm 0.00 in/hr0.0 mm/hr 0.00 in0.0 mm
12:46 AM 79.3°F26.3°C 34.7°F1.5°C 20% 5.0 mph NE8.0 kmh NE 6.7 mph10.8 kmh 25.22 in854.0 mb 0.00 in0.0 mm 0.00 in/hr0.0 mm/hr 0.00 in0.0 mm
12:41 AM 80.2°F26.8°C 35.4°F1.9°C 20% 7.0 mph E11.3 kmh E 11.6 mph18.7 kmh 25.22 in854.0 mb 0.00 in0.0 mm 0.00 in/hr0.0 mm/hr 0.00 in0.0 mm
12:36 AM 80.6°F27.0°C 35.8°F2.1°C 20% 7.0 mph E11.3 kmh E 12.5 mph20.1 kmh 25.22 in854.0 mb 0.00 in0.0 mm 0.00 in/hr0.0 mm/hr 0.00 in0.0 mm
12:31 AM 79.5°F26.4°C 36.1°F2.3°C 21% 4.0 mph E6.4 kmh E 14.3 mph23.0 kmh 25.22 in854.0 mb 0.00 in0.0 mm 0.00 in/hr0.0 mm/hr 0.00 in0.0 mm
12:26 AM 77.5°F25.3°C 36.9°F2.7°C 23% 4.0 mph 6.4 kmh 6.7 mph10.8 kmh 25.22 in854.0 mb 0.00 in0.0 mm 0.00 in/hr0.0 mm/hr 0.00 in0.0 mm
12:21 AM 78.1°F25.6°C 36.1°F2.3°C 22% 6.0 mph WNW9.7 kmh WNW 6.7 mph10.8 kmh 25.22 in854.0 mb 0.00 in0.0 mm 0.00 in/hr0.0 mm/hr 0.00 in0.0 mm
12:16 AM 77.4°F25.2°C 36.7°F2.6°C 23% 6.0 mph WNW9.7 kmh WNW 9.6 mph15.4 kmh 25.22 in854.0 mb 0.00 in0.0 mm 0.00 in/hr0.0 mm/hr 0.00 in0.0 mm
12:11 AM 77.9°F25.5°C 36.0°F2.2°C 22% 4.0 mph NW6.4 kmh NW 8.7 mph14.0 kmh 25.22 in854.0 mb 0.00 in0.0 mm 0.00 in/hr0.0 mm/hr 0.00 in0.0 mm
12:06 AM 79.0°F26.1°C 35.8°F2.1°C 21% 4.0 mph NW6.4 kmh NW 5.4 mph8.7 kmh 25.22 in854.0 mb 0.00 in0.0 mm 0.00 in/hr0.0 mm/hr 0.00 in0.0 mm
12:01 AM 79.3°F26.3°C 34.7°F1.5°C 20% 5.0 mph N8.0 kmh N 7.4 mph11.9 kmh 25.22 in854.0 mb 0.00 in0.0 mm 0.00 in/hr0.0 mm/hr 0.00 in0.0 mm